createdAt,value
2023-01-21T00:01:25.012Z,20.08
2023-01-21T00:04:07.603Z,14.57
2023-01-21T00:06:51.597Z,17.40
2023-01-21T00:09:34.411Z,15.85
2023-01-21T00:12:17.025Z,17.77
2023-01-21T00:14:59.614Z,15.32
2023-01-21T00:17:43.859Z,18.30
2023-01-21T00:20:26.428Z,17.13
2023-01-21T00:23:10.826Z,19.35
2023-01-21T00:25:57.738Z,18.00
2023-01-21T00:28:41.649Z,20.65
2023-01-21T00:31:24.325Z,15.38
2023-01-21T00:34:08.125Z,16.40
2023-01-21T00:36:50.734Z,18.08
2023-01-21T00:39:34.703Z,17.83
2023-01-21T00:42:17.288Z,18.88
2023-01-21T00:45:00.080Z,18.20
2023-01-21T00:47:42.963Z,16.13
2023-01-21T00:50:25.547Z,16.70
2023-01-21T00:53:08.112Z,16.10
2023-01-21T00:55:52.097Z,19.38
2023-01-21T00:58:34.899Z,18.55
2023-01-21T01:01:18.430Z,16.08
2023-01-21T01:04:00.998Z,16.52
2023-01-21T01:06:43.585Z,17.60
2023-01-21T01:09:26.191Z,15.95
2023-01-21T01:12:10.220Z,16.15
2023-01-21T01:14:52.802Z,18.85
2023-01-21T01:17:35.376Z,15.25
2023-01-21T01:20:18.332Z,15.55
2023-01-21T01:23:01.056Z,14.48
2023-01-21T01:25:43.627Z,15.75
2023-01-21T01:28:27.855Z,17.13
2023-01-21T01:31:12.219Z,17.08
2023-01-21T01:33:54.919Z,17.48
2023-01-21T01:36:37.498Z,15.80
2023-01-21T01:39:20.068Z,17.90
2023-01-21T01:42:03.435Z,16.83
2023-01-21T01:44:57.884Z,15.90
2023-01-21T01:47:42.466Z,17.02
2023-01-21T01:50:27.445Z,14.50
2023-01-21T01:53:10.528Z,15.95
2023-01-21T01:55:53.271Z,20.08
2023-01-21T01:58:35.926Z,17.20
2023-01-21T02:01:20.190Z,14.85
2023-01-21T02:04:04.362Z,15.82
2023-01-21T02:06:47.186Z,14.32
2023-01-21T02:09:29.885Z,13.48
2023-01-21T02:12:12.634Z,14.60
2023-01-21T02:14:55.229Z,16.65
2023-01-21T02:17:43.930Z,13.65
2023-01-21T02:20:44.440Z,14.77
2023-01-21T02:23:32.745Z,12.40
2023-01-21T02:26:33.794Z,14.70
2023-01-21T02:29:26.112Z,12.93
2023-01-21T02:32:23.709Z,18.25
2023-01-21T02:35:10.246Z,13.32
2023-01-21T02:37:55.523Z,15.15
2023-01-21T02:40:39.431Z,14.57
2023-01-21T02:43:29.439Z,19.33
2023-01-21T02:46:14.629Z,16.25
2023-01-21T02:48:59.443Z,13.95
2023-01-21T02:51:47.810Z,14.13
2023-01-21T02:54:50.244Z,14.55
2023-01-21T02:57:38.416Z,17.55
2023-01-21T03:00:21.994Z,15.02
2023-01-21T03:03:16.019Z,15.80
2023-01-21T03:06:16.536Z,15.32
2023-01-21T03:09:03.619Z,16.65
2023-01-21T03:11:49.263Z,15.80
2023-01-21T03:14:53.276Z,18.23
2023-01-21T03:17:41.548Z,14.75
2023-01-21T03:20:25.774Z,17.27
2023-01-21T03:23:11.284Z,17.48
2023-01-21T03:25:56.565Z,16.23
2023-01-21T03:28:42.207Z,17.85
2023-01-21T03:31:26.632Z,15.27
2023-01-21T03:34:10.719Z,16.95
2023-01-21T03:36:54.851Z,15.60
2023-01-21T03:39:41.093Z,17.45
2023-01-21T03:42:25.131Z,18.85
2023-01-21T03:45:08.480Z,18.40
2023-01-21T03:47:55.521Z,19.92
2023-01-21T03:50:39.607Z,20.13
2023-01-21T03:53:22.400Z,19.60
2023-01-21T03:56:05.166Z,18.95
2023-01-21T03:58:49.100Z,18.30
2023-01-21T04:01:31.694Z,16.55
2023-01-21T04:04:14.264Z,22.33
2023-01-21T04:06:56.852Z,18.80
2023-01-21T04:09:39.526Z,20.63
2023-01-21T04:12:22.084Z,19.30
2023-01-21T04:15:06.649Z,21.33
2023-01-21T04:17:49.237Z,21.63
2023-01-21T04:20:31.846Z,20.48
2023-01-21T04:23:14.447Z,25.25
2023-01-21T04:25:56.985Z,25.23
2023-01-21T04:28:39.540Z,21.05
2023-01-21T04:31:23.511Z,22.90
2023-01-21T04:34:06.099Z,20.55
2023-01-21T04:36:48.672Z,23.30
2023-01-21T04:39:31.223Z,22.63
2023-01-21T04:42:13.769Z,22.90
2023-01-21T04:44:56.380Z,22.55
2023-01-21T04:47:43.020Z,19.02
2023-01-21T04:50:25.775Z,19.88
2023-01-21T04:53:08.333Z,22.58
2023-01-21T04:55:51.993Z,22.17
2023-01-21T04:58:34.556Z,21.23
2023-01-21T05:01:17.194Z,23.15
2023-01-21T05:04:01.117Z,22.20
2023-01-21T05:06:43.711Z,25.35
2023-01-21T05:09:26.255Z,24.67
2023-01-21T05:12:09.346Z,28.60
2023-01-21T05:14:53.846Z,24.00
2023-01-21T05:17:36.423Z,23.35
2023-01-21T05:20:20.513Z,23.85
2023-01-21T05:23:03.059Z,27.35
2023-01-21T05:25:45.646Z,22.85
2023-01-21T05:28:28.211Z,25.38
2023-01-21T05:31:10.889Z,20.90
2023-01-21T05:33:53.493Z,19.65
2023-01-21T05:36:37.398Z,20.48
2023-01-21T05:39:19.981Z,20.27
2023-01-21T05:42:02.601Z,22.25
2023-01-21T05:44:45.168Z,21.63
2023-01-21T05:47:27.765Z,22.65
2023-01-21T05:50:10.973Z,24.30
2023-01-21T05:52:54.897Z,21.40
2023-01-21T05:55:37.763Z,25.15
2023-01-21T05:58:20.463Z,26.17
2023-01-21T06:01:03.059Z,26.67
2023-01-21T06:03:47.133Z,23.30
2023-01-21T06:06:29.740Z,23.60
2023-01-21T06:09:13.671Z,22.85
2023-01-21T06:11:56.228Z,22.13
2023-01-21T06:14:38.794Z,24.40
2023-01-21T06:17:21.414Z,25.60
2023-01-21T06:20:04.155Z,21.60
2023-01-21T06:22:46.812Z,24.60
2023-01-21T06:25:30.993Z,21.08
2023-01-21T06:28:13.625Z,23.50
2023-01-21T06:30:56.287Z,23.02
2023-01-21T06:33:38.942Z,23.33
2023-01-21T06:36:21.516Z,22.25
2023-01-21T06:39:04.133Z,24.80
2023-01-21T06:41:48.049Z,24.80
2023-01-21T06:44:30.653Z,24.70
2023-01-21T06:47:13.301Z,25.08
2023-01-21T06:49:55.942Z,24.52
2023-01-21T06:52:38.708Z,25.10
2023-01-21T06:55:21.454Z,24.23
2023-01-21T06:58:05.374Z,24.25
2023-01-21T07:00:47.977Z,25.27
2023-01-21T07:03:30.591Z,22.00
2023-01-21T07:06:13.165Z,22.20
2023-01-21T07:08:55.738Z,23.40
2023-01-21T07:11:38.302Z,22.27
2023-01-21T07:14:22.241Z,23.10
2023-01-21T07:17:04.812Z,21.80
2023-01-21T07:19:47.399Z,22.58
2023-01-21T07:22:29.948Z,20.08
2023-01-21T07:25:12.569Z,20.90
2023-01-21T07:27:55.151Z,19.85
2023-01-21T07:30:39.198Z,22.13
2023-01-21T07:33:21.789Z,22.00
2023-01-21T07:36:04.602Z,25.48
2023-01-21T07:38:47.162Z,24.25
2023-01-21T07:41:29.756Z,23.88
2023-01-21T07:44:12.487Z,24.52
2023-01-21T07:46:56.432Z,23.25
2023-01-21T07:49:39.266Z,21.90
2023-01-21T07:52:21.954Z,23.85
2023-01-21T07:55:05.004Z,24.50
2023-01-21T07:57:47.619Z,24.75
2023-01-21T08:00:30.183Z,26.02
2023-01-21T08:03:14.096Z,22.63
2023-01-21T08:05:56.716Z,24.05
2023-01-21T08:08:39.299Z,22.23
2023-01-21T08:11:21.922Z,23.58
2023-01-21T08:14:04.513Z,24.10
2023-01-21T08:16:47.145Z,22.80
2023-01-21T08:19:31.076Z,22.27
2023-01-21T08:22:13.694Z,21.52
2023-01-21T08:24:56.267Z,19.35
2023-01-21T08:27:38.984Z,23.30
2023-01-21T08:30:21.716Z,19.88
2023-01-21T08:33:06.487Z,20.40
2023-01-21T08:35:50.518Z,22.67
2023-01-21T08:38:33.164Z,19.27
2023-01-21T08:41:16.590Z,20.50
2023-01-21T08:43:59.196Z,17.17
2023-01-21T08:46:41.811Z,20.25
2023-01-21T08:49:24.378Z,18.17
2023-01-21T08:52:08.456Z,18.42
2023-01-21T08:54:51.050Z,13.85
2023-01-21T08:57:33.572Z,16.15
2023-01-21T09:00:16.518Z,18.48
2023-01-21T09:02:59.703Z,19.67
2023-01-21T09:05:42.305Z,18.83
2023-01-21T09:08:26.278Z,17.30
2023-01-21T09:11:10.096Z,18.15
2023-01-21T09:13:52.893Z,17.67
2023-01-21T09:16:36.389Z,18.33
2023-01-21T09:19:19.646Z,18.75
2023-01-21T09:22:02.265Z,17.35
2023-01-21T09:24:46.227Z,19.45
2023-01-21T09:27:28.781Z,19.92
2023-01-21T09:30:11.846Z,20.20
2023-01-21T09:32:54.457Z,18.85
2023-01-21T09:35:37.065Z,18.42
2023-01-21T09:38:19.655Z,17.58
2023-01-21T09:41:05.994Z,18.75
2023-01-21T09:43:50.434Z,19.15
2023-01-21T09:46:36.909Z,16.77
2023-01-21T09:49:21.707Z,17.70
2023-01-21T09:52:07.558Z,16.30
2023-01-21T09:54:50.213Z,18.75
2023-01-21T09:57:42.237Z,17.90
2023-01-21T10:00:32.176Z,17.15
2023-01-21T10:03:19.434Z,18.35
2023-01-21T10:06:09.788Z,17.95
2023-01-21T10:08:58.636Z,22.00
2023-01-21T10:11:50.059Z,19.73
2023-01-21T10:14:42.352Z,18.63
2023-01-21T10:17:30.597Z,19.80
2023-01-21T10:20:16.003Z,20.20
2023-01-21T10:23:01.069Z,20.02
2023-01-21T10:25:45.794Z,17.60
2023-01-21T10:28:30.486Z,17.85
2023-01-21T10:31:17.415Z,18.70
2023-01-21T10:34:00.083Z,18.67
2023-01-21T10:36:47.883Z,20.13
2023-01-21T10:39:34.742Z,17.40
2023-01-21T10:42:25.892Z,17.70
2023-01-21T10:45:13.772Z,17.92
2023-01-21T10:48:04.558Z,17.13
2023-01-21T10:50:50.326Z,16.58
2023-01-21T10:53:36.636Z,18.27
2023-01-21T10:56:23.387Z,16.50
2023-01-21T10:59:08.227Z,15.93
2023-01-21T11:01:52.196Z,18.60
2023-01-21T11:04:36.878Z,17.95
2023-01-21T11:07:21.720Z,15.93
2023-01-21T11:10:05.982Z,15.95
2023-01-21T11:12:49.033Z,18.40
2023-01-21T11:15:34.426Z,14.77
2023-01-21T11:18:27.333Z,14.65
2023-01-21T11:21:17.440Z,14.90
2023-01-21T11:24:00.960Z,15.00
2023-01-21T11:26:49.940Z,14.85
2023-01-21T11:29:40.029Z,15.25
2023-01-21T11:32:23.746Z,15.70
2023-01-21T11:35:10.591Z,15.05
2023-01-21T11:37:54.760Z,17.20
2023-01-21T11:40:37.835Z,18.42
2023-01-21T11:43:33.492Z,17.38
2023-01-21T11:46:24.016Z,17.45
2023-01-21T11:49:26.119Z,17.83
2023-01-21T11:52:19.010Z,14.18
2023-01-21T11:55:03.640Z,15.57
2023-01-21T11:57:50.143Z,16.67
2023-01-21T12:00:36.045Z,16.40
2023-01-21T12:03:20.033Z,15.93
2023-01-21T12:06:02.881Z,17.30
2023-01-21T12:08:49.567Z,17.27
2023-01-21T12:11:33.629Z,18.20
2023-01-21T12:14:22.719Z,17.13
2023-01-21T12:17:09.114Z,16.80
2023-01-21T12:19:57.793Z,15.13
2023-01-21T12:22:46.392Z,16.45
2023-01-21T12:25:38.246Z,16.83
2023-01-21T12:28:31.473Z,16.27
2023-01-21T12:31:23.644Z,15.77
2023-01-21T12:34:14.020Z,15.63
2023-01-21T12:36:59.296Z,15.65
2023-01-21T12:39:42.069Z,15.30
2023-01-21T12:42:27.287Z,14.63
2023-01-21T12:45:14.896Z,15.07
2023-01-21T12:48:01.320Z,14.98
2023-01-21T12:50:45.302Z,12.82
2023-01-21T12:53:32.908Z,10.30
2023-01-21T12:56:21.841Z,11.60
2023-01-21T12:59:06.526Z,11.40
2023-01-21T13:01:54.653Z,13.10
2023-01-21T13:04:41.255Z,11.65
2023-01-21T13:07:31.338Z,11.60
2023-01-21T13:10:16.659Z,11.73
2023-01-21T13:13:03.452Z,11.27
2023-01-21T13:15:47.507Z,10.55
2023-01-21T13:18:33.665Z,12.68
2023-01-21T13:21:21.404Z,9.65
2023-01-21T13:24:08.377Z,10.43
2023-01-21T13:26:54.114Z,10.88
2023-01-21T13:29:39.667Z,8.80
2023-01-21T13:32:30.050Z,12.50
2023-01-21T13:35:19.712Z,12.10
2023-01-21T13:38:06.018Z,11.27
2023-01-21T13:40:50.593Z,10.60
2023-01-21T13:43:40.405Z,11.50
2023-01-21T13:46:30.284Z,11.45
2023-01-21T13:49:20.204Z,10.85
2023-01-21T13:52:06.630Z,11.02
2023-01-21T13:54:58.985Z,8.88
2023-01-21T13:57:48.673Z,10.40
2023-01-21T14:00:32.980Z,10.15
2023-01-21T14:03:22.681Z,7.97
2023-01-21T14:06:08.634Z,7.82
2023-01-21T14:08:55.443Z,7.43
2023-01-21T14:11:40.440Z,6.22
2023-01-21T14:14:36.158Z,6.70
2023-01-21T14:17:33.388Z,5.93
2023-01-21T14:20:34.465Z,6.78
2023-01-21T14:23:26.085Z,6.70
2023-01-21T14:26:31.810Z,6.63
2023-01-21T14:29:17.803Z,8.10
2023-01-21T14:32:04.354Z,5.63
2023-01-21T14:34:54.019Z,7.50
2023-01-21T14:37:38.850Z,7.15
2023-01-21T14:40:26.577Z,8.48
2023-01-21T14:43:19.114Z,5.88
2023-01-21T14:46:01.986Z,6.65
2023-01-21T14:48:56.674Z,5.55
2023-01-21T14:51:43.778Z,6.22
2023-01-21T14:54:27.601Z,4.25
2023-01-21T14:57:19.594Z,4.47
2023-01-21T15:00:13.147Z,3.83
2023-01-21T15:03:14.647Z,5.18
2023-01-21T15:06:00.319Z,4.43
2023-01-21T15:08:46.204Z,7.07
2023-01-21T15:11:31.365Z,4.88
2023-01-21T15:14:15.540Z,5.03
2023-01-21T15:16:59.598Z,4.30
2023-01-21T15:19:42.188Z,5.18
2023-01-21T15:22:40.729Z,4.40
2023-01-21T15:25:31.422Z,3.80
2023-01-21T15:28:43.437Z,5.35
2023-01-21T15:31:43.371Z,5.20
2023-01-21T15:34:30.462Z,5.13
2023-01-21T15:37:17.536Z,5.28
2023-01-21T15:40:01.769Z,4.32
2023-01-21T15:42:46.933Z,4.50
2023-01-21T15:45:32.262Z,3.97
2023-01-21T15:48:30.167Z,3.70
2023-01-21T15:51:27.426Z,4.78
2023-01-21T15:54:21.142Z,3.72
2023-01-21T15:57:11.822Z,3.22
2023-01-21T16:00:03.657Z,3.25
2023-01-21T16:02:51.685Z,5.18
2023-01-21T16:05:39.807Z,3.60
2023-01-21T16:08:27.988Z,4.07
2023-01-21T16:11:19.089Z,4.93
2023-01-21T16:14:13.106Z,4.30
2023-01-21T16:17:03.132Z,5.43
2023-01-21T16:19:47.622Z,4.13
2023-01-21T16:22:32.214Z,4.85
2023-01-21T16:25:18.448Z,4.10
2023-01-21T16:28:01.140Z,4.90
2023-01-21T16:30:53.006Z,3.58
2023-01-21T16:33:35.648Z,5.68
2023-01-21T16:36:18.679Z,4.20
2023-01-21T16:39:06.926Z,5.03
2023-01-21T16:42:00.675Z,4.95
2023-01-21T16:44:43.231Z,4.57
2023-01-21T16:47:26.934Z,7.10
2023-01-21T16:50:18.284Z,5.20
2023-01-21T16:53:06.822Z,3.38
2023-01-21T16:55:51.031Z,3.50
2023-01-21T16:58:36.211Z,4.10
2023-01-21T17:01:19.856Z,4.15
2023-01-21T17:04:03.285Z,3.47
2023-01-21T17:06:46.575Z,3.63
2023-01-21T17:09:30.934Z,3.92
2023-01-21T17:12:20.635Z,4.13
2023-01-21T17:15:08.154Z,5.13
2023-01-21T17:17:51.690Z,5.65
2023-01-21T17:20:36.196Z,4.80
2023-01-21T17:23:20.441Z,3.60
2023-01-21T17:26:04.780Z,4.78
2023-01-21T17:28:49.157Z,5.95
2023-01-21T17:31:36.664Z,5.72
2023-01-21T17:34:20.872Z,4.38
2023-01-21T17:37:05.397Z,4.57
2023-01-21T17:40:00.674Z,5.45
2023-01-21T17:42:43.330Z,4.65
2023-01-21T17:45:32.785Z,4.57
2023-01-21T17:48:22.794Z,4.20
2023-01-21T17:51:06.357Z,5.13
2023-01-21T17:53:55.492Z,5.35
2023-01-21T17:56:39.400Z,5.30
2023-01-21T17:59:26.902Z,4.88
2023-01-21T18:02:11.973Z,5.15
2023-01-21T18:04:55.963Z,5.97
2023-01-21T18:07:38.725Z,6.28
2023-01-21T18:10:24.016Z,6.18
2023-01-21T18:13:06.746Z,6.90
2023-01-21T18:15:51.729Z,6.47
2023-01-21T18:18:35.799Z,4.78
2023-01-21T18:21:20.977Z,4.55
2023-01-21T18:24:03.612Z,5.50
2023-01-21T18:26:46.291Z,5.40
2023-01-21T18:29:30.253Z,5.07
2023-01-21T18:32:13.095Z,5.72
2023-01-21T18:34:55.973Z,6.25
2023-01-21T18:37:39.976Z,5.70
2023-01-21T18:40:23.651Z,5.57
2023-01-21T18:43:06.243Z,5.65
2023-01-21T18:45:48.881Z,5.60
2023-01-21T18:48:32.087Z,5.82
2023-01-21T18:51:14.833Z,3.80
2023-01-21T18:53:58.837Z,5.45
2023-01-21T18:56:42.391Z,8.18
2023-01-21T18:59:24.999Z,6.80
2023-01-21T19:02:11.969Z,6.78
2023-01-21T19:04:54.630Z,7.75
2023-01-21T19:07:37.263Z,5.30
2023-01-21T19:10:21.542Z,5.43
2023-01-21T19:13:04.399Z,6.97
2023-01-21T19:15:47.876Z,6.40
2023-01-21T19:18:30.547Z,6.63
2023-01-21T19:21:13.647Z,6.68
2023-01-21T19:23:56.426Z,6.22
2023-01-21T19:26:40.624Z,6.65
2023-01-21T19:29:26.741Z,5.40
2023-01-21T19:32:14.458Z,5.15
2023-01-21T19:34:57.818Z,5.78
2023-01-21T19:37:40.857Z,5.35
2023-01-21T19:40:24.208Z,4.63
2023-01-21T19:43:10.650Z,7.07
2023-01-21T19:45:53.687Z,6.43
2023-01-21T19:48:36.320Z,6.68
2023-01-21T19:51:18.952Z,5.22
2023-01-21T19:54:01.596Z,5.53
2023-01-21T19:56:44.353Z,6.57
2023-01-21T19:59:28.335Z,6.32
2023-01-21T20:02:11.751Z,6.25
2023-01-21T20:04:54.480Z,5.05
2023-01-21T20:07:37.118Z,6.18
2023-01-21T20:10:21.062Z,6.82
2023-01-21T20:13:03.681Z,6.30
2023-01-21T20:15:48.544Z,7.32
2023-01-21T20:18:32.519Z,8.38
2023-01-21T20:21:15.303Z,8.23
2023-01-21T20:23:57.933Z,7.68
2023-01-21T20:26:40.844Z,7.93
2023-01-21T20:29:23.438Z,7.78
2023-01-21T20:32:07.628Z,6.85
2023-01-21T20:34:50.221Z,8.38
2023-01-21T20:37:33.198Z,5.88
2023-01-21T20:40:16.927Z,6.70
2023-01-21T20:42:59.689Z,6.60
2023-01-21T20:45:43.199Z,8.60
2023-01-21T20:48:28.677Z,9.23
2023-01-21T20:51:11.346Z,6.53
2023-01-21T20:53:54.016Z,7.00
2023-01-21T20:56:38.286Z,5.20
2023-01-21T20:59:21.784Z,7.30
2023-01-21T21:02:04.418Z,5.28
2023-01-21T21:04:48.442Z,4.97
2023-01-21T21:07:31.039Z,4.93
2023-01-21T21:10:17.700Z,5.40
2023-01-21T21:13:00.435Z,9.13
2023-01-21T21:15:46.418Z,5.13
2023-01-21T21:18:29.311Z,4.72
2023-01-21T21:21:14.001Z,6.75
2023-01-21T21:23:56.676Z,5.03
2023-01-21T21:26:40.992Z,5.28
2023-01-21T21:29:23.665Z,6.78
2023-01-21T21:32:06.831Z,6.20
2023-01-21T21:34:51.260Z,5.30
2023-01-21T21:37:35.232Z,5.00
2023-01-21T21:40:18.168Z,4.88
2023-01-21T21:43:18.261Z,4.75
2023-01-21T21:46:22.086Z,4.70
2023-01-21T21:49:04.708Z,4.53
2023-01-21T21:51:47.382Z,4.60
2023-01-21T21:54:31.382Z,3.00
2023-01-21T21:57:14.214Z,5.38
2023-01-21T21:59:57.019Z,4.90
2023-01-21T22:02:39.917Z,4.65
2023-01-21T22:05:22.909Z,2.92
2023-01-21T22:08:06.046Z,4.38
2023-01-21T22:10:59.459Z,3.80
2023-01-21T22:13:43.437Z,5.43
2023-01-21T22:16:27.395Z,4.38
2023-01-21T22:19:10.038Z,3.22
2023-01-21T22:21:52.714Z,3.67
2023-01-21T22:24:35.296Z,2.60
2023-01-21T22:27:19.274Z,2.75
2023-01-21T22:30:01.882Z,2.15
2023-01-21T22:32:44.522Z,3.35
2023-01-21T22:35:27.206Z,3.40
2023-01-21T22:38:10.108Z,2.80
2023-01-21T22:40:56.263Z,2.13
2023-01-21T22:43:44.138Z,3.55
2023-01-21T22:46:29.358Z,3.13
2023-01-21T22:49:12.275Z,2.67
2023-01-21T22:51:55.059Z,2.95
2023-01-21T22:54:37.645Z,3.83
2023-01-21T22:57:20.253Z,2.80
2023-01-21T23:00:05.425Z,2.30
2023-01-21T23:02:48.100Z,3.65
2023-01-21T23:05:31.015Z,4.13
2023-01-21T23:08:13.806Z,2.47
2023-01-21T23:11:00.666Z,2.95
2023-01-21T23:13:43.551Z,3.95
2023-01-21T23:16:28.159Z,2.50
2023-01-21T23:19:10.773Z,2.85
2023-01-21T23:21:53.343Z,3.40
2023-01-21T23:24:35.966Z,2.45
2023-01-21T23:27:18.574Z,2.38
2023-01-21T23:30:01.238Z,3.60
2023-01-21T23:32:45.388Z,2.13
2023-01-21T23:35:27.981Z,3.05
2023-01-21T23:38:10.601Z,2.90
2023-01-21T23:40:53.181Z,3.53
2023-01-21T23:43:36.137Z,2.42
2023-01-21T23:46:19.983Z,3.38
2023-01-21T23:49:03.997Z,4.50
2023-01-21T23:51:46.950Z,4.80
2023-01-21T23:54:29.614Z,3.00
2023-01-21T23:57:12.730Z,3.28
2023-01-21T23:59:55.297Z,3.03
